Andover, OH

2:43 AM EDT on September 21, 2014 (GMT -0400)
Ashtabula County | Change Station
CLOSE
Current Station
Airport
Location: Ashtabula,
Elevation: 922 ft
Nearby Weather Stations

Elev 922 ft 41.78 °N, 80.70 °W | Updated 50 minutes ago

Mostly Cloudy
Mostly Cloudy
67 °F
Feels Like 67 °F
N
8
Wind Variable Wind from SSW

Today
High -- | Low -- °F
--% Chance of Precip.
Yesterday
High -- | Low -- °F
Precip. -- in
7:08 AM 7:21 PM
Waning Crescent, 8% visible
Pressure 29.83 in
Visibility 10.0 miles
Clouds Scattered Clouds 11000 ft
Dew Point 62 °F
Humidity 84%
Rainfall 0.00 in
Snow Depth Not available.
UV 0 out of 12
Pollen 5.00 out of 12
Ozone Good
PM2.5 Good
Flu Activity Not available.
METAR KHZY 210553Z AUTO 21007KT 10SM SCT110 19/17 A2984 RMK AO2 RAB12E21 SLP100 P0000 60000 T01940167 10217 20194 55016

More Conditions Fewer Conditions

Pressure 29.83 in
Visibility 10.0 miles
Clouds Scattered Clouds 11000 ft
Dew Point 62 °F
Humidity 84%
Rainfall 0.00 in
Snow Depth Not available.
UV 0 out of 12
Pollen 5.00 out of 12
Ozone Good
PM2.5 Good
Flu Activity Not available.
METAR KHZY 210553Z AUTO 21007KT 10SM SCT110 19/17 A2984 RMK AO2 RAB12E21 SLP100 P0000 60000 T01940167 10217 20194 55016

More Conditions Fewer Conditions

10-Day Weather Forecast

Almanac

Astronomy

Sep. 21, 2014 Rise Set
Actual Time 7:08 AM EDT 7:21 PM EDT
Civil Twilight 6:40 AM EDT 7:48 PM EDT
Nautical Twilight 6:08 AM EDT 8:21 PM EDT
Astronomical Twilight 5:35 AM EDT 8:54 PM EDT
Moon 4:39 AM EDT 5:57 PM EDT
Length of Visible Light 13h 07m
Length of Day
12h 12m
Tomorrow will be 2m 45s shorter.
Waning Crescent, 8% of the Moon is Illuminated
Today
Waning Crescent
Sep 24
New
Oct 1
First Quarter
Oct 8
Full
Oct 15
Last Quarter

Today's Extremes

State Highs State Lows

Community

WunderPhotos

Upload Photos

1,755,098 photos uploaded!

Nearby

Air Quality

  Air Quality AQ Index Pollutant
Yesterday Good
PM10
Yesterday Good
OZONE
Current Good
PM2.5
Current Good
OZONE
Sunday Good
PM2.5
Sunday Good
OZONE
Monday Good
PM2.5
Monday Good
OZONE
Tuesday Moderate
PM2.5
Tuesday Good
OZONE
Wednesday Moderate
PM2.5
Wednesday Good
OZONE

Snow Depth

Station Depth Elevation
No new snow has been reported.

Earthquake Activity

City Distance Mag. Time & Date
No recent earthquake activity has been reported nearby.
Minimum magnitude displayed is 2.5.

Coastal Water Temperatures

Place Temperature
Fairport, OH 66.9 °F
Cleveland, OH 68.0 °F

Nearby Weather Stations